Time;durP1;ratioP1;P1;durP2;ratioP2;P2;SDS_P1;SDS_P2;PMS_P1;PMS_P2;Temp;Humidity;BMP_temperature;BMP_pressure;BME280_temperature;BME280_humidity;BME280_pressure;Samples;Min_cycle;Max_cycle;Signal;HPM_P1;HPM_P2
2023/06/07 00:01:43;;;;;;;5.37;5.07;;;19.20;53.90;;;;;;6274098;28;20238;-82
2023/06/07 00:04:48;;;;;;;5.30;5.00;;;19.20;53.90;;;;;;6279224;28;20244;-82
2023/06/07 00:07:51;;;;;;;5.07;4.80;;;19.10;53.80;;;;;;6273114;28;20828;-84
2023/06/07 00:10:56;;;;;;;5.37;4.97;;;19.10;53.70;;;;;;6256204;28;20241;-82
2023/06/07 00:13:59;;;;;;;5.43;5.13;;;19.10;53.70;;;;;;6287871;28;20298;-84
2023/06/07 00:17:03;;;;;;;5.63;5.17;;;19.00;53.50;;;;;;6288761;28;20674;-83
2023/06/07 00:20:08;;;;;;;5.43;5.03;;;19.00;53.30;;;;;;6262196;28;20377;-84
2023/06/07 00:23:13;;;;;;;4.73;4.43;;;19.00;53.40;;;;;;6274369;28;20242;-84
2023/06/07 00:26:17;;;;;;;5.03;4.67;;;19.00;53.40;;;;;;6275259;28;20885;-83
2023/06/07 00:29:20;;;;;;;5.37;4.87;;;19.00;53.50;;;;;;6265780;28;20234;-83
2023/06/07 00:32:24;;;;;;;5.30;5.00;;;18.90;53.60;;;;;;6267433;28;20238;-84
2023/06/07 00:35:27;;;;;;;4.97;4.57;;;18.90;53.60;;;;;;6273597;28;20323;-84
2023/06/07 00:38:37;;;;;;;4.57;4.37;;;18.90;53.60;;;;;;6269945;28;20341;-84
2023/06/07 00:41:42;;;;;;;5.40;5.10;;;18.80;53.80;;;;;;6277052;28;20303;-82
2023/06/07 00:44:45;;;;;;;5.47;5.00;;;18.80;54.00;;;;;;6278612;28;20229;-83
2023/06/07 00:47:49;;;;;;;4.67;4.47;;;18.80;53.90;;;;;;6280790;28;20312;-84
2023/06/07 00:50:53;;;;;;;4.90;4.70;;;18.70;54.00;;;;;;6266073;28;20259;-84
2023/06/07 00:53:59;;;;;;;4.50;4.30;;;18.70;54.00;;;;;;6280009;28;20234;-84
2023/06/07 00:57:05;;;;;;;5.00;4.77;;;18.70;54.00;;;;;;6272978;28;20267;-84
2023/06/07 01:00:13;;;;;;;4.83;4.60;;;18.70;54.00;;;;;;6276882;28;20225;-82
2023/06/07 01:03:16;;;;;;;5.33;4.93;;;18.70;54.00;;;;;;6276960;28;20269;-84
2023/06/07 01:06:22;;;;;;;4.97;4.57;;;18.70;54.10;;;;;;6252594;28;20244;-84
2023/06/07 01:09:26;;;;;;;4.80;4.40;;;18.60;54.10;;;;;;6270622;28;20272;-84
2023/06/07 01:12:34;;;;;;;4.20;4.07;;;18.60;54.10;;;;;;6278179;28;20241;-85
2023/06/07 01:15:39;;;;;;;4.97;4.57;;;18.60;54.10;;;;;;6270728;28;20256;-85
2023/06/07 01:18:46;;;;;;;4.43;4.23;;;18.50;54.10;;;;;;6265015;28;20230;-84
2023/06/07 01:21:51;;;;;;;5.37;4.93;;;18.50;54.20;;;;;;6277046;28;20965;-84
2023/06/07 01:24:57;;;;;;;5.27;5.07;;;18.40;54.30;;;;;;6263712;28;20230;-84
2023/06/07 01:28:05;;;;;;;5.90;5.47;;;18.50;54.30;;;;;;6270740;28;20303;-84
2023/06/07 01:31:10;;;;;;;5.43;4.90;;;18.40;54.30;;;;;;6264681;28;20243;-84
2023/06/07 01:34:14;;;;;;;5.23;4.90;;;18.40;54.20;;;;;;6271011;28;20249;-82
2023/06/07 01:37:22;;;;;;;5.90;5.20;;;18.30;54.40;;;;;;6260893;28;20601;-82
2023/06/07 01:40:27;;;;;;;5.33;4.93;;;18.30;54.40;;;;;;6272301;28;20233;-84
2023/06/07 01:43:31;;;;;;;5.03;4.50;;;18.30;54.30;;;;;;6269303;28;20236;-84
2023/06/07 01:46:35;;;;;;;4.97;4.73;;;18.30;54.30;;;;;;6270929;28;20733;-82
2023/06/07 01:49:39;;;;;;;5.30;4.80;;;18.30;54.40;;;;;;6267127;28;20250;-84
2023/06/07 01:52:43;;;;;;;4.90;4.63;;;18.30;54.40;;;;;;6283679;28;20266;-83
2023/06/07 01:55:51;;;;;;;4.90;4.70;;;18.30;54.40;;;;;;6279572;28;20314;-83
2023/06/07 01:59:03;;;;;;;5.57;5.10;;;18.30;54.40;;;;;;6291829;28;20237;-83
2023/06/07 02:02:14;;;;;;;5.47;4.57;;;18.20;54.40;;;;;;6267828;28;20637;-84
2023/06/07 02:05:19;;;;;;;5.47;4.97;;;18.20;54.40;;;;;;6258327;28;20363;-83
2023/06/07 02:08:30;;;;;;;5.37;4.93;;;18.20;54.30;;;;;;6270611;28;20229;-83
2023/06/07 02:11:38;;;;;;;5.23;5.03;;;18.20;54.30;;;;;;6255838;28;20329;-83
2023/06/07 02:14:42;;;;;;;5.30;4.87;;;18.10;54.30;;;;;;6269769;28;20289;-84
2023/06/07 02:17:57;;;;;;;5.33;5.10;;;18.10;54.40;;;;;;6276530;28;20709;-85
2023/06/07 02:21:00;;;;;;;4.57;4.37;;;18.10;54.30;;;;;;6279356;28;20233;-83
2023/06/07 02:24:05;;;;;;;5.37;4.90;;;18.10;54.30;;;;;;6299892;28;20237;-84
2023/06/07 02:27:10;;;;;;;5.17;4.80;;;18.00;54.40;;;;;;6267381;28;20229;-84
2023/06/07 02:30:14;;;;;;;4.90;4.50;;;18.00;54.30;;;;;;6268613;28;20241;-83
2023/06/07 02:33:21;;;;;;;5.50;5.00;;;18.00;54.20;;;;;;6264279;28;20245;-83
2023/06/07 02:36:25;;;;;;;5.93;5.00;;;18.00;54.20;;;;;;6265328;28;20297;-84
2023/06/07 02:39:29;;;;;;;4.97;4.67;;;18.00;54.10;;;;;;6260265;28;20375;-83
2023/06/07 02:42:34;;;;;;;4.33;4.03;;;18.00;54.00;;;;;;6282310;28;20240;-83
2023/06/07 02:45:37;;;;;;;4.90;4.60;;;18.00;54.20;;;;;;6287841;28;20238;-85
2023/06/07 02:48:40;;;;;;;5.00;4.70;;;17.90;54.10;;;;;;6275480;28;20245;-83
2023/06/07 02:51:43;;;;;;;4.97;4.47;;;17.90;54.00;;;;;;6284069;28;20241;-84
2023/06/07 02:54:47;;;;;;;4.93;4.57;;;18.00;53.90;;;;;;6278305;28;20226;-84
2023/06/07 02:57:51;;;;;;;4.93;4.63;;;17.90;53.90;;;;;;6280995;28;20255;-84
2023/06/07 03:00:55;;;;;;;6.20;5.67;;;17.90;53.90;;;;;;6273920;28;20706;-84
2023/06/07 03:03:58;;;;;;;5.50;5.10;;;17.80;54.50;;;;;;6285834;28;20232;-84
2023/06/07 03:07:02;;;;;;;4.53;4.27;;;17.90;54.90;;;;;;6278236;28;20233;-84
2023/06/07 03:10:06;;;;;;;5.30;4.83;;;17.80;55.20;;;;;;6267263;28;20291;-83
2023/06/07 03:13:11;;;;;;;4.70;4.50;;;17.80;54.70;;;;;;6268415;28;20240;-85
2023/06/07 03:16:14;;;;;;;4.60;4.40;;;17.80;54.20;;;;;;6281754;28;20237;-84
2023/06/07 03:19:19;;;;;;;4.63;4.33;;;17.90;54.00;;;;;;6277621;28;20252;-83
2023/06/07 03:22:23;;;;;;;4.57;4.40;;;17.90;53.80;;;;;;6277898;28;20304;-84
2023/06/07 03:25:26;;;;;;;4.73;4.53;;;17.90;53.70;;;;;;6267270;28;20399;-84
2023/06/07 03:28:31;;;;;;;5.63;5.23;;;17.90;53.90;;;;;;6276174;28;20618;-81
2023/06/07 03:31:34;;;;;;;5.13;4.80;;;17.90;54.00;;;;;;6281513;28;20253;-80
2023/06/07 03:34:41;;;;;;;5.23;4.73;;;17.90;53.80;;;;;;6263086;28;20311;-80
2023/06/07 03:37:44;;;;;;;5.13;4.77;;;17.90;54.00;;;;;;6268349;28;20738;-81
2023/06/07 03:40:48;;;;;;;5.17;4.90;;;18.00;53.80;;;;;;6252060;28;20284;-78
2023/06/07 03:43:52;;;;;;;6.07;5.67;;;18.00;53.70;;;;;;6259906;28;20319;-82
2023/06/07 03:46:55;;;;;;;5.50;5.20;;;18.00;53.60;;;;;;6269595;28;20273;-79
2023/06/07 03:49:58;;;;;;;6.53;6.00;;;18.00;53.50;;;;;;6258799;28;20238;-80
2023/06/07 03:53:02;;;;;;;5.70;5.30;;;18.00;53.50;;;;;;6263171;28;20261;-77
2023/06/07 03:56:06;;;;;;;6.40;5.87;;;18.10;53.70;;;;;;6265869;28;20287;-77
2023/06/07 03:59:12;;;;;;;5.97;5.57;;;18.10;53.30;;;;;;6258855;28;20268;-76
2023/06/07 04:02:15;;;;;;;6.13;5.70;;;18.20;53.20;;;;;;6265541;28;20230;-79
2023/06/07 04:05:18;;;;;;;5.63;5.23;;;18.20;53.50;;;;;;6263693;28;20242;-80
2023/06/07 04:08:22;;;;;;;5.67;5.17;;;18.30;53.60;;;;;;6274736;28;20260;-77
2023/06/07 04:11:27;;;;;;;5.07;4.80;;;18.40;53.60;;;;;;6270708;28;20244;-78
2023/06/07 04:14:31;;;;;;;5.40;5.10;;;18.40;53.50;;;;;;6270950;28;20229;-77
2023/06/07 04:17:34;;;;;;;5.13;4.80;;;18.50;53.10;;;;;;6271412;28;20316;-76
2023/06/07 04:20:38;;;;;;;5.63;5.23;;;18.60;52.70;;;;;;6274654;28;20241;-78
2023/06/07 04:23:42;;;;;;;6.20;4.90;;;18.70;52.30;;;;;;6264117;28;20442;-76
2023/06/07 04:26:47;;;;;;;5.80;5.30;;;18.70;52.60;;;;;;6255756;28;20241;-77
2023/06/07 04:29:53;;;;;;;5.00;4.77;;;18.80;52.50;;;;;;6274629;28;20680;-78
2023/06/07 04:32:58;;;;;;;5.30;4.90;;;18.80;52.50;;;;;;6256405;28;20308;-77
2023/06/07 04:36:01;;;;;;;4.70;4.40;;;18.90;52.60;;;;;;6273803;28;20237;-77
2023/06/07 04:39:08;;;;;;;5.60;5.10;;;19.00;52.40;;;;;;6269112;28;20233;-77
2023/06/07 04:42:12;;;;;;;4.57;4.37;;;19.00;52.40;;;;;;6266257;28;20238;-76
2023/06/07 04:45:17;;;;;;;4.93;4.60;;;19.00;52.00;;;;;;6273991;28;20248;-77
2023/06/07 04:48:22;;;;;;;4.90;4.60;;;19.00;51.90;;;;;;6271162;28;20330;-78
2023/06/07 04:51:26;;;;;;;5.07;4.77;;;19.20;51.80;;;;;;6252891;28;20245;-76
2023/06/07 04:54:31;;;;;;;5.10;4.90;;;19.40;51.50;;;;;;6278313;28;20246;-76
2023/06/07 04:57:35;;;;;;;4.53;4.27;;;19.70;51.60;;;;;;6272899;28;20225;-77
2023/06/07 05:00:40;;;;;;;5.20;4.57;;;20.00;51.70;;;;;;6267252;28;20245;-79
2023/06/07 05:03:43;;;;;;;5.53;4.97;;;20.30;50.80;;;;;;6263863;28;20705;-81
2023/06/07 05:06:46;;;;;;;4.70;4.50;;;20.50;50.60;;;;;;6260777;28;20277;-80
2023/06/07 05:09:49;;;;;;;4.47;4.27;;;20.60;50.50;;;;;;6284996;28;20236;-78
2023/06/07 05:12:53;;;;;;;7.93;5.37;;;20.70;49.80;;;;;;6268829;28;20246;-80
2023/06/07 05:15:57;;;;;;;4.80;4.50;;;20.70;49.40;;;;;;6276696;28;20283;-79
2023/06/07 05:19:03;;;;;;;5.93;4.47;;;20.70;49.60;;;;;;6265588;28;20245;-80
2023/06/07 05:22:07;;;;;;;6.13;4.63;;;20.60;49.10;;;;;;6274663;28;20668;-78
2023/06/07 05:25:11;;;;;;;5.53;5.03;;;20.60;48.90;;;;;;6262585;28;20716;-77
2023/06/07 05:28:15;;;;;;;5.37;4.80;;;20.60;48.60;;;;;;6268321;28;20276;-78
2023/06/07 05:31:20;;;;;;;6.07;4.80;;;20.60;48.90;;;;;;6283065;28;20267;-78
2023/06/07 05:34:23;;;;;;;5.90;5.50;;;21.00;48.90;;;;;;6255151;28;20246;-79
2023/06/07 05:37:26;;;;;;;5.20;4.80;;;21.30;48.00;;;;;;6270532;28;20360;-79
2023/06/07 05:40:29;;;;;;;5.17;4.70;;;21.70;48.10;;;;;;6266763;28;20261;-81
2023/06/07 05:43:32;;;;;;;4.90;4.60;;;22.10;47.30;;;;;;6276053;28;20271;-80
2023/06/07 05:46:37;;;;;;;7.07;4.50;;;22.60;47.00;;;;;;6273223;28;20657;-81
2023/06/07 05:49:40;;;;;;;4.87;4.57;;;23.00;46.00;;;;;;6274801;28;20245;-80
2023/06/07 05:52:43;;;;;;;6.27;4.30;;;23.10;45.70;;;;;;6267010;28;20278;-79
2023/06/07 05:55:48;;;;;;;5.30;5.00;;;22.90;46.00;;;;;;6275665;28;20302;-79
2023/06/07 05:58:51;;;;;;;5.20;4.80;;;22.70;46.00;;;;;;6280897;28;20232;-79
2023/06/07 06:01:55;;;;;;;5.10;4.63;;;22.50;46.60;;;;;;6276672;28;20780;-80
2023/06/07 06:04:58;;;;;;;5.07;4.70;;;22.10;46.70;;;;;;6277423;28;20879;-80
2023/06/07 06:08:02;;;;;;;5.10;4.47;;;22.00;46.90;;;;;;6256876;28;20622;-78
2023/06/07 06:11:05;;;;;;;6.00;4.60;;;21.70;47.30;;;;;;6252454;28;20279;-80
2023/06/07 06:14:08;;;;;;;6.37;5.17;;;21.60;48.10;;;;;;6256141;28;20328;-79
2023/06/07 06:17:13;;;;;;;5.20;4.80;;;21.50;48.00;;;;;;6261258;28;20265;-79
2023/06/07 06:20:17;;;;;;;9.37;5.70;;;21.50;48.00;;;;;;6265561;28;20234;-77
2023/06/07 06:23:20;;;;;;;5.37;4.90;;;21.40;48.50;;;;;;6269404;28;21518;-77
2023/06/07 06:26:25;;;;;;;5.47;5.03;;;21.40;47.70;;;;;;6260887;28;20756;-79
2023/06/07 06:29:28;;;;;;;6.93;5.37;;;21.30;47.60;;;;;;6265418;28;20240;-78
2023/06/07 06:32:32;;;;;;;7.47;4.60;;;21.30;47.60;;;;;;6264596;28;20241;-81
2023/06/07 06:35:36;;;;;;;5.13;4.60;;;21.30;47.30;;;;;;6268556;28;20314;-78
2023/06/07 06:38:39;;;;;;;12.07;5.10;;;21.40;47.40;;;;;;6266658;28;20236;-78
2023/06/07 06:41:43;;;;;;;7.60;4.67;;;21.40;47.10;;;;;;6271784;28;20276;-77
2023/06/07 06:44:47;;;;;;;4.90;4.50;;;21.40;46.70;;;;;;6270838;28;20809;-79
2023/06/07 06:47:51;;;;;;;5.63;5.13;;;21.50;46.70;;;;;;6280405;28;20714;-79
2023/06/07 06:50:55;;;;;;;4.10;3.80;;;21.50;47.30;;;;;;6265682;28;20245;-79
2023/06/07 06:53:58;;;;;;;6.73;4.37;;;21.60;47.00;;;;;;6268881;28;20248;-80
2023/06/07 06:57:01;;;;;;;4.33;4.03;;;21.90;46.80;;;;;;6273334;28;20316;-78
2023/06/07 07:00:06;;;;;;;9.23;4.30;;;22.10;45.80;;;;;;6264322;28;20241;-78
2023/06/07 07:03:12;;;;;;;5.43;4.37;;;22.30;45.30;;;;;;6274135;28;20229;-78
2023/06/07 07:06:16;;;;;;;4.00;3.70;;;22.50;45.00;;;;;;6286772;28;20220;-78
2023/06/07 07:09:19;;;;;;;4.87;4.17;;;22.50;45.40;;;;;;6276341;28;20272;-78
2023/06/07 07:12:22;;;;;;;4.97;4.00;;;22.70;45.70;;;;;;6276719;28;20333;-77
2023/06/07 07:15:28;;;;;;;4.57;4.17;;;22.80;44.50;;;;;;6277201;28;20311;-78
2023/06/07 07:18:32;;;;;;;6.83;4.27;;;22.90;45.30;;;;;;6273730;28;20249;-79
2023/06/07 07:21:37;;;;;;;4.33;3.80;;;22.90;44.70;;;;;;6269584;28;20271;-80
2023/06/07 07:24:41;;;;;;;4.37;3.83;;;23.00;45.00;;;;;;6267882;28;20237;-82
2023/06/07 07:27:44;;;;;;;3.80;3.60;;;23.20;45.00;;;;;;6276992;28;20328;-78
2023/06/07 07:30:47;;;;;;;4.30;4.10;;;23.50;44.50;;;;;;6278604;28;20245;-79
2023/06/07 07:33:52;;;;;;;4.77;4.20;;;23.70;43.50;;;;;;6273822;28;20264;-80
2023/06/07 07:36:57;;;;;;;4.67;4.17;;;23.90;43.50;;;;;;6270525;28;20238;-79
2023/06/07 07:40:00;;;;;;;8.17;4.37;;;24.00;43.50;;;;;;6274305;28;20233;-80
2023/06/07 07:43:03;;;;;;;4.73;4.43;;;24.20;43.40;;;;;;6273903;28;20255;-79
2023/06/07 07:46:07;;;;;;;4.13;3.97;;;24.20;43.20;;;;;;6274961;28;20299;-78
2023/06/07 07:49:11;;;;;;;7.53;4.67;;;24.40;42.90;;;;;;6269384;28;20601;-79
2023/06/07 07:52:15;;;;;;;7.50;4.10;;;24.40;43.00;;;;;;6272175;28;20237;-80
2023/06/07 07:55:18;;;;;;;7.47;4.87;;;24.70;43.30;;;;;;6264351;28;20258;-78
2023/06/07 07:58:21;;;;;;;7.50;4.40;;;24.90;42.30;;;;;;6265171;28;20332;-80
2023/06/07 08:01:25;;;;;;;9.30;4.90;;;25.00;42.60;;;;;;6259178;28;20767;-80
2023/06/07 08:04:29;;;;;;;5.20;4.40;;;25.00;42.20;;;;;;6270716;28;21836;-81
2023/06/07 08:07:32;;;;;;;10.77;5.00;;;24.90;42.60;;;;;;6270445;28;20245;-78
2023/06/07 08:10:35;;;;;;;5.67;4.83;;;25.00;42.50;;;;;;6265918;28;20304;-79
2023/06/07 08:13:39;;;;;;;5.93;4.33;;;25.00;42.50;;;;;;6269158;28;20329;-79
2023/06/07 08:16:42;;;;;;;7.57;4.47;;;25.20;43.00;;;;;;6270622;28;21399;-78
2023/06/07 08:19:47;;;;;;;8.70;4.67;;;25.20;43.10;;;;;;6268919;28;20249;-80
2023/06/07 08:22:51;;;;;;;6.10;4.40;;;25.20;42.20;;;;;;6270395;28;20233;-79
2023/06/07 08:25:54;;;;;;;6.90;5.10;;;25.10;42.60;;;;;;6270489;28;20332;-79
2023/06/07 08:28:57;;;;;;;6.17;4.60;;;25.20;42.80;;;;;;6268796;28;20267;-77
2023/06/07 08:32:00;;;;;;;11.43;4.90;;;25.30;42.10;;;;;;6290360;28;20241;-77
2023/06/07 08:35:06;;;;;;;4.93;4.23;;;25.20;42.30;;;;;;6261862;28;20234;-78
2023/06/07 08:38:09;;;;;;;4.80;4.40;;;25.30;42.00;;;;;;6269137;28;20241;-76
2023/06/07 08:41:12;;;;;;;4.73;4.30;;;25.40;42.60;;;;;;6275434;28;20352;-79
2023/06/07 08:44:15;;;;;;;4.77;4.13;;;25.90;41.90;;;;;;6267419;28;20234;-78
2023/06/07 08:47:21;;;;;;;7.63;4.43;;;26.10;41.70;;;;;;6267842;28;20388;-78
2023/06/07 08:50:27;;;;;;;9.83;4.70;;;26.10;41.80;;;;;;6269309;28;20238;-78
2023/06/07 08:53:38;;;;;;;5.27;4.77;;;26.10;41.20;;;;;;6264239;28;20242;-80
2023/06/07 08:56:43;;;;;;;4.40;4.03;;;26.20;40.80;;;;;;6267481;28;20846;-78
2023/06/07 08:59:48;;;;;;;4.30;4.00;;;26.40;40.80;;;;;;6271060;28;20628;-78
2023/06/07 09:02:52;;;;;;;6.00;4.37;;;26.60;40.80;;;;;;6269265;28;20237;-78
2023/06/07 09:05:57;;;;;;;7.13;4.67;;;26.80;39.90;;;;;;6271654;28;20321;-79
2023/06/07 09:09:01;;;;;;;5.03;4.47;;;27.00;39.60;;;;;;6270512;28;20325;-77
2023/06/07 09:12:05;;;;;;;4.03;3.83;;;27.40;39.50;;;;;;6274880;28;20237;-79
2023/06/07 09:15:10;;;;;;;6.97;4.00;;;27.80;39.30;;;;;;6283387;28;20318;-79
2023/06/07 09:18:13;;;;;;;6.93;4.50;;;27.80;39.00;;;;;;6272880;28;20339;-80
2023/06/07 09:21:22;;;;;;;5.40;5.00;;;27.90;39.30;;;;;;6267663;28;20241;-79
2023/06/07 09:24:28;;;;;;;5.57;4.40;;;27.90;39.40;;;;;;6263902;28;20244;-79
2023/06/07 09:27:31;;;;;;;7.97;3.90;;;28.10;39.40;;;;;;6264807;28;20249;-80
2023/06/07 09:30:34;;;;;;;7.00;4.15;;;28.40;39.10;;;;;;6264887;28;20855;-78
2023/06/07 09:33:37;;;;;;;4.75;4.22;;;28.60;38.30;;;;;;6268357;28;20719;-79
2023/06/07 09:36:50;;;;;;;5.78;3.83;;;28.50;38.60;;;;;;6274854;28;20241;-78
2023/06/07 09:40:08;;;;;;;4.55;4.10;;;28.70;38.70;;;;;;6271698;28;20241;-77
2023/06/07 09:43:11;;;;;;;8.73;4.60;;;28.90;38.70;;;;;;6276129;28;20253;-78
2023/06/07 09:46:15;;;;;;;8.20;4.63;;;28.90;38.30;;;;;;6269201;28;20252;-79
2023/06/07 09:49:27;;;;;;;4.72;4.32;;;28.50;39.00;;;;;;6274460;28;20237;-79
2023/06/07 09:52:32;;;;;;;4.40;4.20;;;28.20;39.30;;;;;;6268421;28;20764;-77
2023/06/07 09:55:34;;;;;;;4.45;4.25;;;28.10;40.10;;;;;;6271832;28;20329;-79
2023/06/07 09:58:38;;;;;;;4.33;4.13;;;28.10;39.20;;;;;;6276057;28;20677;-80
2023/06/07 10:01:43;;;;;;;4.68;4.38;;;28.00;39.30;;;;;;6268658;28;20321;-78
2023/06/07 10:04:46;;;;;;;4.43;4.13;;;28.00;40.00;;;;;;6270745;28;20730;-78
2023/06/07 10:07:53;;;;;;;8.07;4.38;;;28.30;40.30;;;;;;6261346;28;20778;-78
2023/06/07 10:10:57;;;;;;;15.35;4.70;;;28.70;39.00;;;;;;6271112;28;20233;-78
2023/06/07 10:14:06;;;;;;;4.78;4.57;;;28.70;38.80;;;;;;6259041;28;20241;-79
2023/06/07 10:17:13;;;;;;;4.63;4.30;;;28.80;39.00;;;;;;6288513;28;20348;-80
2023/06/07 10:20:25;;;;;;;4.03;3.92;;;28.90;39.50;;;;;;6275582;28;20288;-79
2023/06/07 10:23:36;;;;;;;5.00;3.92;;;29.10;39.00;;;;;;6276535;28;20238;-81
2023/06/07 10:26:48;;;;;;;4.47;4.15;;;29.00;38.60;;;;;;6272049;28;20241;-79
2023/06/07 10:30:00;;;;;;;6.43;3.70;;;28.90;38.40;;;;;;6273375;28;20750;-80
2023/06/07 10:33:04;;;;;;;4.57;3.78;;;28.80;38.00;;;;;;6270748;28;20288;-78
2023/06/07 10:36:08;;;;;;;4.65;3.63;;;28.70;38.40;;;;;;6269375;28;20983;-78
2023/06/07 10:39:13;;;;;;;5.35;4.18;;;28.60;38.00;;;;;;6278635;28;20232;-78
2023/06/07 10:42:17;;;;;;;4.63;4.13;;;28.50;38.10;;;;;;6270305;28;20244;-78
2023/06/07 10:45:20;;;;;;;8.02;3.60;;;28.40;38.20;;;;;;6276266;28;20246;-78
2023/06/07 10:48:35;;;;;;;5.93;4.30;;;28.60;38.10;;;;;;6275850;28;20237;-78
2023/06/07 10:52:04;;;;;;;7.30;4.00;;;28.60;38.20;;;;;;6272861;28;20241;-78
2023/06/07 10:55:27;;;;;;;4.77;4.27;;;28.30;38.80;;;;;;6287785;28;20230;-77
2023/06/07 10:58:31;;;;;;;4.60;3.93;;;28.50;38.30;;;;;;6259267;28;20286;-76
2023/06/07 11:01:34;;;;;;;12.37;4.27;;;28.60;37.60;;;;;;6268418;28;20260;-77
2023/06/07 11:04:54;;;;;;;4.20;3.90;;;28.30;37.70;;;;;;6283758;28;20225;-75
2023/06/07 11:08:24;;;;;;;5.73;3.90;;;28.50;38.00;;;;;;6251423;28;20230;-77
2023/06/07 11:11:53;;;;;;;7.13;4.23;;;28.60;38.00;;;;;;6266237;28;20726;-78
2023/06/07 11:15:22;;;;;;;4.60;4.30;;;28.70;37.70;;;;;;6289206;28;20221;-77
2023/06/07 11:18:55;;;;;;;4.10;3.87;;;28.60;37.60;;;;;;6279529;28;20230;-76
2023/06/07 11:22:07;;;;;;;7.60;5.30;;;28.50;37.70;;;;;;6274504;28;20229;-78
2023/06/07 11:25:14;;;;;;;4.47;4.18;;;28.50;38.70;;;;;;6255418;28;20241;-80
2023/06/07 11:28:22;;;;;;;4.80;4.40;;;28.30;38.00;;;;;;6259579;28;20244;-80
2023/06/07 11:31:25;;;;;;;7.20;4.33;;;28.30;38.30;;;;;;6285907;28;20237;-81
2023/06/07 11:34:30;;;;;;;7.68;4.57;;;28.50;38.00;;;;;;6264494;28;20264;-78
2023/06/07 11:37:33;;;;;;;6.30;4.25;;;28.70;38.70;;;;;;6269738;28;20245;-80
2023/06/07 11:40:37;;;;;;;6.32;4.60;;;28.90;38.20;;;;;;6288142;28;20233;-82
2023/06/07 11:43:41;;;;;;;4.38;3.75;;;29.10;37.80;;;;;;6277428;28;20233;-78
2023/06/07 11:46:46;;;;;;;4.95;3.97;;;29.20;37.60;;;;;;6274459;28;20354;-79
2023/06/07 11:49:49;;;;;;;4.43;4.22;;;29.00;37.80;;;;;;6278727;28;20306;-78
2023/06/07 11:52:53;;;;;;;3.70;3.58;;;29.00;37.80;;;;;;6256183;28;20262;-76
2023/06/07 11:55:57;;;;;;;4.10;3.85;;;29.00;37.60;;;;;;6274044;28;20301;-78
2023/06/07 11:59:02;;;;;;;5.22;3.75;;;29.10;37.90;;;;;;6280152;28;20229;-78
2023/06/07 12:02:05;;;;;;;4.82;4.35;;;29.30;37.60;;;;;;6292529;28;20256;-80
2023/06/07 12:05:10;;;;;;;6.25;4.65;;;29.40;37.20;;;;;;6267469;28;20340;-78
2023/06/07 12:08:16;;;;;;;9.25;4.10;;;29.50;37.40;;;;;;6278288;28;20245;-79
2023/06/07 12:11:22;;;;;;;5.88;4.43;;;29.70;37.00;;;;;;6271655;28;20268;-77
2023/06/07 12:14:37;;;;;;;4.78;3.80;;;29.70;37.20;;;;;;6261944;28;20733;-79
2023/06/07 12:17:43;;;;;;;5.85;4.25;;;29.90;37.20;;;;;;6270892;28;20754;-80
2023/06/07 12:20:47;;;;;;;5.43;3.97;;;30.00;37.30;;;;;;6268410;28;20391;-81
2023/06/07 12:23:52;;;;;;;4.13;3.83;;;30.00;36.70;;;;;;6273288;28;20710;-80
2023/06/07 12:26:56;;;;;;;3.97;3.78;;;29.70;37.10;;;;;;6261569;28;20230;-80
2023/06/07 12:30:01;;;;;;;4.20;3.90;;;29.70;37.20;;;;;;6274741;28;20234;-81
2023/06/07 12:33:06;;;;;;;4.07;3.78;;;29.70;37.60;;;;;;6280884;28;20253;-79
2023/06/07 12:36:10;;;;;;;3.97;3.88;;;29.70;37.00;;;;;;6278699;28;20321;-78
2023/06/07 12:39:14;;;;;;;5.32;4.00;;;29.70;37.50;;;;;;6285677;28;20240;-81
2023/06/07 12:42:17;;;;;;;4.93;4.45;;;29.80;37.80;;;;;;6277881;28;20233;-79
2023/06/07 12:45:23;;;;;;;3.90;3.60;;;29.90;37.10;;;;;;6275317;28;20229;-79
2023/06/07 12:48:26;;;;;;;6.47;3.95;;;29.80;37.20;;;;;;6282482;28;20253;-81
2023/06/07 12:51:30;;;;;;;4.22;3.90;;;30.00;37.10;;;;;;6278195;28;20272;-82
2023/06/07 12:54:33;;;;;;;4.47;4.18;;;29.90;37.10;;;;;;6284988;28;20603;-81
2023/06/07 12:57:36;;;;;;;4.63;4.30;;;29.80;37.30;;;;;;6270293;28;20674;-78
2023/06/07 13:00:40;;;;;;;3.78;3.65;;;29.70;37.30;;;;;;6266891;28;20321;-81
2023/06/07 13:03:43;;;;;;;4.05;3.85;;;30.00;37.90;;;;;;6275573;28;20730;-79
2023/06/07 13:06:47;;;;;;;4.78;3.97;;;29.90;36.80;;;;;;6277486;28;21834;-79
2023/06/07 13:09:50;;;;;;;4.82;4.38;;;29.90;37.50;;;;;;6287889;28;20249;-78
2023/06/07 13:12:54;;;;;;;4.82;4.40;;;29.70;37.20;;;;;;6281072;28;20269;-80
2023/06/07 13:15:59;;;;;;;4.38;4.18;;;29.90;37.70;;;;;;6263511;28;20277;-78
2023/06/07 13:19:03;;;;;;;4.65;4.20;;;30.00;37.30;;;;;;6267820;28;20248;-79
2023/06/07 13:22:06;;;;;;;6.68;4.97;;;29.80;37.20;;;;;;6260519;28;20271;-78
2023/06/07 13:25:10;;;;;;;5.80;4.38;;;29.60;37.30;;;;;;6259367;28;20237;-80
2023/06/07 13:28:13;;;;;;;7.30;4.70;;;29.30;37.70;;;;;;6266166;28;20237;-79
2023/06/07 13:31:25;;;;;;;4.70;4.40;;;29.20;37.60;;;;;;6283315;28;20808;-81
2023/06/07 13:34:28;;;;;;;4.72;4.07;;;29.20;37.80;;;;;;6280403;28;20608;-80
2023/06/07 13:37:31;;;;;;;4.10;3.78;;;29.20;37.90;;;;;;6262978;28;20250;-77
2023/06/07 13:40:34;;;;;;;5.47;4.00;;;29.20;37.90;;;;;;6267016;28;20238;-79
2023/06/07 13:43:38;;;;;;;4.90;4.43;;;29.30;38.10;;;;;;6268525;28;20226;-80
2023/06/07 13:46:46;;;;;;;5.20;3.95;;;29.50;37.70;;;;;;6270773;28;20271;-77
2023/06/07 13:49:52;;;;;;;4.53;4.22;;;29.50;37.80;;;;;;6277895;28;20243;-79
2023/06/07 13:52:56;;;;;;;4.63;4.32;;;29.50;37.70;;;;;;6278751;28;20249;-78
2023/06/07 13:55:59;;;;;;;4.57;4.10;;;29.50;37.90;;;;;;6268487;28;20233;-79
2023/06/07 13:59:02;;;;;;;4.97;4.68;;;29.70;37.50;;;;;;6279152;28;20251;-80
2023/06/07 14:02:09;;;;;;;4.53;4.28;;;29.50;37.80;;;;;;6267602;28;20238;-78
2023/06/07 14:05:13;;;;;;;7.93;4.63;;;29.40;37.90;;;;;;6265193;28;20233;-79
2023/06/07 14:08:16;;;;;;;4.30;4.05;;;29.40;37.70;;;;;;6258253;28;20234;-77
2023/06/07 14:11:21;;;;;;;4.57;4.32;;;29.10;37.50;;;;;;6267220;28;20280;-78
2023/06/07 14:14:24;;;;;;;4.78;4.30;;;29.00;38.40;;;;;;6253856;28;20248;-79
2023/06/07 14:17:28;;;;;;;4.30;4.00;;;29.20;38.00;;;;;;6263853;28;20241;-79
2023/06/07 14:20:32;;;;;;;4.85;3.85;;;29.30;38.00;;;;;;6278498;28;20238;-79
2023/06/07 14:23:35;;;;;;;4.10;3.92;;;29.40;38.20;;;;;;6273408;28;20245;-79
2023/06/07 14:26:38;;;;;;;4.85;4.53;;;29.40;38.00;;;;;;6258194;28;20231;-78
2023/06/07 14:29:42;;;;;;;5.03;4.70;;;29.30;37.80;;;;;;6271364;28;20784;-79
2023/06/07 14:32:46;;;;;;;4.60;4.35;;;29.30;37.70;;;;;;6268991;28;20300;-79
2023/06/07 14:35:49;;;;;;;4.85;4.70;;;29.40;38.20;;;;;;6256281;28;20233;-79
2023/06/07 14:38:53;;;;;;;4.78;4.47;;;29.40;38.00;;;;;;6264119;28;20394;-80
2023/06/07 14:41:56;;;;;;;4.15;4.05;;;29.50;38.20;;;;;;6292752;28;20375;-79
2023/06/07 14:44:59;;;;;;;4.55;3.90;;;29.50;38.20;;;;;;6263044;28;20284;-79
2023/06/07 14:48:04;;;;;;;4.47;4.20;;;29.60;37.90;;;;;;6273379;28;20237;-79
2023/06/07 14:51:08;;;;;;;4.40;4.07;;;29.50;37.60;;;;;;6267375;28;20318;-83
2023/06/07 14:54:11;;;;;;;6.35;4.13;;;29.50;37.70;;;;;;6264943;28;20830;-79
2023/06/07 14:57:16;;;;;;;3.97;3.75;;;29.60;38.00;;;;;;6275029;28;20245;-81
2023/06/07 15:00:20;;;;;;;4.03;3.92;;;29.80;38.20;;;;;;6279332;28;20299;-81
2023/06/07 15:03:25;;;;;;;4.68;4.38;;;29.90;37.50;;;;;;6269035;28;20241;-79
2023/06/07 15:06:29;;;;;;;4.30;4.00;;;29.90;37.50;;;;;;6278977;28;20249;-80
2023/06/07 15:09:34;;;;;;;4.78;4.38;;;29.70;37.60;;;;;;6276615;28;20808;-79
2023/06/07 15:12:37;;;;;;;4.80;4.30;;;29.70;37.60;;;;;;6256970;28;20919;-79
2023/06/07 15:15:40;;;;;;;3.90;3.70;;;29.50;37.70;;;;;;6269139;28;20286;-80
2023/06/07 15:18:45;;;;;;;4.85;4.57;;;29.40;37.90;;;;;;6275231;28;20320;-80
2023/06/07 15:21:49;;;;;;;4.43;4.22;;;29.40;38.00;;;;;;6272280;28;20319;-77
2023/06/07 15:24:52;;;;;;;4.78;4.38;;;29.40;37.80;;;;;;6269003;28;20836;-76
2023/06/07 15:27:55;;;;;;;4.78;4.28;;;29.30;37.90;;;;;;6272457;28;20327;-80
2023/06/07 15:30:59;;;;;;;4.22;4.03;;;29.30;38.10;;;;;;6270643;28;20314;-80
2023/06/07 15:34:03;;;;;;;4.30;4.07;;;29.50;37.70;;;;;;6277011;28;20234;-78
2023/06/07 15:37:09;;;;;;;4.45;4.15;;;29.50;37.70;;;;;;6275394;28;20253;-79
2023/06/07 15:40:14;;;;;;;4.85;4.45;;;29.70;37.40;;;;;;6261245;28;20615;-81
2023/06/07 15:43:17;;;;;;;3.92;3.83;;;29.70;37.70;;;;;;6274397;28;20810;-80
2023/06/07 15:46:21;;;;;;;7.10;6.57;;;29.90;37.80;;;;;;6273656;28;20315;-81
2023/06/07 15:49:26;;;;;;;4.15;3.83;;;30.20;37.70;;;;;;6272503;28;20248;-77
2023/06/07 15:52:31;;;;;;;4.78;4.28;;;30.20;37.20;;;;;;6264451;28;20321;-79
2023/06/07 15:55:34;;;;;;;4.28;3.85;;;30.30;37.00;;;;;;6274191;28;20283;-79
2023/06/07 15:58:38;;;;;;;4.70;3.97;;;30.30;37.20;;;;;;6270426;28;20245;-78
2023/06/07 16:01:41;;;;;;;3.50;3.40;;;30.00;37.00;;;;;;6279224;28;20241;-79